Time;durP1;ratioP1;P1;durP2;ratioP2;P2;SDS_P1;SDS_P2;PMS_P1;PMS_P2;Temp;Humidity;BMP_temperature;BMP_pressure;BME280_temperature;BME280_humidity;BME280_pressure;Samples;Min_cycle;Max_cycle;Signal;HPM_P1;HPM_P2
2022/03/03 00:00:52;;;;;;;13.38;2.55;;;;;;;;;;5083732;28;20140;-70
2022/03/03 00:03:19;;;;;;;13.75;2.47;;;;;;;;;;5083686;28;20526;-70
2022/03/03 00:05:46;;;;;;;11.35;1.77;;;;;;;;;;5085013;28;20053;-70
2022/03/03 00:08:13;;;;;;;9.10;1.60;;;;;;;;;;5084634;28;20052;-70
2022/03/03 00:10:39;;;;;;;15.40;2.00;;;;;;;;;;5083150;28;20135;-69
2022/03/03 00:13:08;;;;;;;11.63;2.35;;;;;;;;;;5083685;28;20525;-71
2022/03/03 00:15:35;;;;;;;12.82;2.92;;;;;;;;;;5087834;28;20210;-71
2022/03/03 00:18:02;;;;;;;10.88;2.38;;;;;;;;;;5081775;28;20053;-70
2022/03/03 00:20:31;;;;;;;11.55;2.40;;;;;;;;;;5083969;28;20134;-70
2022/03/03 00:22:58;;;;;;;11.85;2.60;;;;;;;;;;5083469;28;20058;-70
2022/03/03 00:25:24;;;;;;;4.68;2.22;;;;;;;;;;5084428;28;20152;-70
2022/03/03 00:27:57;;;;;;;9.80;1.90;;;;;;;;;;5083200;28;20040;-70
2022/03/03 00:30:24;;;;;;;6.53;1.65;;;;;;;;;;5085640;28;20595;-70
2022/03/03 00:32:50;;;;;;;5.93;2.33;;;;;;;;;;5082014;28;20539;-70
2022/03/03 00:35:17;;;;;;;11.77;2.75;;;;;;;;;;5083219;28;20053;-70
2022/03/03 00:37:44;;;;;;;11.73;2.00;;;;;;;;;;5083013;28;20143;-70
2022/03/03 00:40:10;;;;;;;7.88;1.88;;;;;;;;;;5082532;28;20075;-70
2022/03/03 00:42:43;;;;;;;8.68;2.25;;;;;;;;;;5082097;28;20138;-70
2022/03/03 00:45:10;;;;;;;10.45;2.75;;;;;;;;;;5082294;28;20075;-70
2022/03/03 00:47:36;;;;;;;12.53;1.67;;;;;;;;;;5081642;28;20479;-70
2022/03/03 00:50:09;;;;;;;15.00;2.45;;;;;;;;;;5082546;28;20068;-70
2022/03/03 00:52:36;;;;;;;11.02;2.47;;;;;;;;;;5082647;28;20130;-70
2022/03/03 00:55:02;;;;;;;14.05;2.45;;;;;;;;;;5082996;28;20139;-71
2022/03/03 00:57:33;;;;;;;9.85;2.42;;;;;;;;;;5084357;28;20170;-71
2022/03/03 01:00:00;;;;;;;3.47;1.67;;;;;;;;;;5081277;28;20142;-70
2022/03/03 01:02:26;;;;;;;7.57;2.60;;;;;;;;;;5081669;28;20428;-70
2022/03/03 01:04:53;;;;;;;13.63;2.70;;;;;;;;;;5082493;28;20058;-70
2022/03/03 01:07:20;;;;;;;12.75;2.63;;;;;;;;;;5082083;28;20580;-70
2022/03/03 01:09:47;;;;;;;12.53;3.20;;;;;;;;;;5084540;28;20140;-70
2022/03/03 01:12:19;;;;;;;15.95;2.65;;;;;;;;;;5081463;28;20334;-70
2022/03/03 01:14:46;;;;;;;9.77;2.40;;;;;;;;;;5084315;28;20474;-71
2022/03/03 01:17:13;;;;;;;13.00;2.80;;;;;;;;;;5081164;28;20330;-70
2022/03/03 01:19:44;;;;;;;7.53;2.75;;;;;;;;;;5080341;28;20128;-70
2022/03/03 01:22:10;;;;;;;11.82;2.80;;;;;;;;;;5082525;28;20079;-70
2022/03/03 01:24:37;;;;;;;10.87;2.03;;;;;;;;;;5081723;28;20506;-70
2022/03/03 01:27:10;;;;;;;11.23;2.50;;;;;;;;;;5081642;28;20422;-70
2022/03/03 01:29:37;;;;;;;3.33;1.55;;;;;;;;;;5082368;28;20147;-70
2022/03/03 01:32:04;;;;;;;12.68;2.60;;;;;;;;;;5079734;28;20070;-70
2022/03/03 01:34:31;;;;;;;17.45;2.78;;;;;;;;;;5081465;28;20154;-70
2022/03/03 01:36:57;;;;;;;5.77;2.20;;;;;;;;;;5081182;28;20052;-70
2022/03/03 01:39:24;;;;;;;8.38;2.55;;;;;;;;;;5082213;28;20402;-71
2022/03/03 01:41:51;;;;;;;11.85;2.03;;;;;;;;;;5080884;28;20584;-70
2022/03/03 01:44:17;;;;;;;8.10;2.75;;;;;;;;;;5083940;28;20047;-70
2022/03/03 01:46:50;;;;;;;9.43;2.17;;;;;;;;;;5082144;28;20502;-70
2022/03/03 01:49:24;;;;;;;9.82;2.22;;;;;;;;;;5082169;28;20151;-70
2022/03/03 01:51:51;;;;;;;9.90;2.50;;;;;;;;;;5081699;28;20135;-70
2022/03/03 01:54:18;;;;;;;8.95;2.03;;;;;;;;;;5081386;28;20514;-70
2022/03/03 01:56:47;;;;;;;5.80;2.20;;;;;;;;;;5082824;28;20074;-70
2022/03/03 01:59:14;;;;;;;9.23;1.50;;;;;;;;;;5083073;28;20183;-70
2022/03/03 02:01:42;;;;;;;6.50;2.35;;;;;;;;;;5083356;28;20329;-70
2022/03/03 02:04:09;;;;;;;7.38;2.67;;;;;;;;;;5081865;28;20548;-70
2022/03/03 02:06:37;;;;;;;13.73;3.15;;;;;;;;;;5082704;28;20139;-70
2022/03/03 02:09:04;;;;;;;14.57;3.22;;;;;;;;;;5082108;28;20044;-70
2022/03/03 02:11:31;;;;;;;7.32;2.42;;;;;;;;;;5081952;28;20481;-70
2022/03/03 02:13:58;;;;;;;16.55;3.03;;;;;;;;;;5082375;28;21012;-70
2022/03/03 02:16:24;;;;;;;5.82;2.67;;;;;;;;;;5081431;28;20147;-70
2022/03/03 02:18:58;;;;;;;8.30;3.28;;;;;;;;;;5081551;28;20594;-71
2022/03/03 02:21:24;;;;;;;;;;;;;;;;;;5084409;28;20084;-70
2022/03/03 02:23:51;;;;;;;11.55;2.97;;;;;;;;;;5063948;28;20042;-71
2022/03/03 02:26:19;;;;;;;12.95;3.47;;;;;;;;;;5080886;28;20068;-70
2022/03/03 02:28:49;;;;;;;12.23;3.85;;;;;;;;;;5081955;28;20431;-70
2022/03/03 02:31:16;;;;;;;13.38;3.33;;;;;;;;;;5081942;28;20471;-71
2022/03/03 02:33:49;;;;;;;6.13;2.90;;;;;;;;;;5082201;28;20138;-70
2022/03/03 02:36:20;;;;;;;14.73;4.18;;;;;;;;;;5079001;28;20079;-70
2022/03/03 02:38:48;;;;;;;12.13;4.13;;;;;;;;;;5082420;28;20135;-70
2022/03/03 02:41:17;;;;;;;8.90;3.58;;;;;;;;;;5079643;28;20139;-70
2022/03/03 02:43:44;;;;;;;12.10;4.20;;;;;;;;;;5082437;28;20496;-70
2022/03/03 02:46:11;;;;;;;17.15;3.70;;;;;;;;;;5081344;28;20138;-70
2022/03/03 02:48:44;;;;;;;14.23;4.07;;;;;;;;;;5080250;28;20573;-71
2022/03/03 02:51:10;;;;;;;11.18;3.38;;;;;;;;;;5062834;28;20130;-70
2022/03/03 02:53:37;;;;;;;13.83;3.67;;;;;;;;;;5082466;28;20050;-71
2022/03/03 02:56:08;;;;;;;21.33;4.90;;;;;;;;;;5079862;28;20511;-70
2022/03/03 02:58:34;;;;;;;13.38;3.75;;;;;;;;;;5080285;28;20131;-70
2022/03/03 03:01:01;;;;;;;11.07;3.42;;;;;;;;;;5080649;28;20056;-71
2022/03/03 03:03:28;;;;;;;9.32;3.22;;;;;;;;;;5080604;28;20171;-70
2022/03/03 03:05:55;;;;;;;10.48;3.15;;;;;;;;;;5081979;28;20052;-71
2022/03/03 03:08:21;;;;;;;7.27;2.83;;;;;;;;;;5061997;28;20127;-71
2022/03/03 03:10:48;;;;;;;10.90;3.55;;;;;;;;;;5081938;28;20389;-71
2022/03/03 03:13:15;;;;;;;10.73;3.53;;;;;;;;;;5078712;28;20565;-71
2022/03/03 03:15:43;;;;;;;10.82;3.42;;;;;;;;;;5078663;28;20075;-70
2022/03/03 03:18:18;;;;;;;19.10;4.00;;;;;;;;;;5077341;28;20131;-71
2022/03/03 03:20:45;;;;;;;11.30;3.63;;;;;;;;;;5081281;28;20483;-71
2022/03/03 03:23:12;;;;;;;14.50;3.80;;;;;;;;;;5078154;28;20053;-70
2022/03/03 03:25:45;;;;;;;12.07;3.85;;;;;;;;;;5079687;28;20048;-71
2022/03/03 03:28:13;;;;;;;24.70;4.10;;;;;;;;;;5084956;28;20066;-71
2022/03/03 03:30:39;;;;;;;;;;;;;;;;;;5083590;28;20624;-71
2022/03/03 03:33:12;;;;;;;12.85;3.22;;;;;;;;;;5083111;28;19994;-70
2022/03/03 03:35:40;;;;;;;15.37;3.03;;;;;;;;;;5077062;28;20045;-70
2022/03/03 03:38:06;;;;;;;;;;;;;;;;;;5080172;28;20481;-71
2022/03/03 03:40:34;;;;;;;10.40;3.22;;;;;;;;;;5085750;28;19959;-71
2022/03/03 03:43:00;;;;;;;6.90;2.50;;;;;;;;;;5076498;28;20131;-71
2022/03/03 03:45:27;;;;;;;14.47;3.60;;;;;;;;;;5079753;28;20048;-71
2022/03/03 03:47:59;;;;;;;15.65;3.78;;;;;;;;;;5067743;28;20048;-71
2022/03/03 03:50:28;;;;;;;15.23;3.53;;;;;;;;;;5083108;28;20518;-71
2022/03/03 03:52:54;;;;;;;10.40;3.37;;;;;;;;;;5081595;28;20833;-71
2022/03/03 03:55:28;;;;;;;9.40;3.17;;;;;;;;;;5079852;28;20135;-71
2022/03/03 03:57:54;;;;;;;15.73;3.45;;;;;;;;;;5082040;28;20135;-71
2022/03/03 04:00:25;;;;;;;8.80;3.60;;;;;;;;;;5076345;28;20055;-70
2022/03/03 04:02:52;;;;;;;5.85;2.33;;;;;;;;;;5087632;28;20056;-71
2022/03/03 04:05:19;;;;;;;16.33;3.72;;;;;;;;;;5078130;28;20048;-71
2022/03/03 04:07:45;;;;;;;9.97;3.53;;;;;;;;;;5080769;28;20080;-70
2022/03/03 04:10:12;;;;;;;13.40;3.70;;;;;;;;;;5081297;28;20495;-71
2022/03/03 04:12:39;;;;;;;8.70;3.10;;;;;;;;;;5083691;28;20087;-71
2022/03/03 04:15:06;;;;;;;11.77;3.33;;;;;;;;;;5077778;28;20294;-71
2022/03/03 04:17:33;;;;;;;12.80;3.10;;;;;;;;;;5084443;28;20053;-70
2022/03/03 04:20:04;;;;;;;13.03;3.70;;;;;;;;;;5083825;28;20533;-70
2022/03/03 04:22:30;;;;;;;12.30;3.15;;;;;;;;;;5079990;28;20114;-70
2022/03/03 04:24:57;;;;;;;;;;;;;;;;;;5078274;28;20492;-71
2022/03/03 04:27:24;;;;;;;17.60;3.55;;;;;;;;;;5080466;28;19920;-71
2022/03/03 04:29:51;;;;;;;11.93;3.15;;;;;;;;;;5078977;28;20130;-71
2022/03/03 04:32:24;;;;;;;10.10;3.55;;;;;;;;;;5083035;28;20088;-70
2022/03/03 04:34:54;;;;;;;13.52;3.65;;;;;;;;;;5080616;28;20048;-71
2022/03/03 04:37:20;;;;;;;9.17;2.27;;;;;;;;;;5080168;28;20134;-71
2022/03/03 04:39:48;;;;;;;11.73;3.67;;;;;;;;;;5083001;28;20321;-71
2022/03/03 04:42:14;;;;;;;9.93;3.40;;;;;;;;;;5081090;28;20138;-70
2022/03/03 04:44:41;;;;;;;8.85;2.90;;;;;;;;;;5084108;28;20139;-71
2022/03/03 04:47:10;;;;;;;12.35;3.08;;;;;;;;;;5081616;28;20496;-71
2022/03/03 04:49:37;;;;;;;6.10;2.53;;;;;;;;;;5079444;28;20504;-71
2022/03/03 04:52:03;;;;;;;8.65;3.20;;;;;;;;;;5066870;28;20086;-71
2022/03/03 04:54:30;;;;;;;9.05;3.40;;;;;;;;;;5083930;28;20127;-71
2022/03/03 04:56:57;;;;;;;7.78;3.08;;;;;;;;;;5078502;28;20079;-71
2022/03/03 04:59:24;;;;;;;7.97;3.07;;;;;;;;;;5079356;28;20098;-71
2022/03/03 05:01:59;;;;;;;8.57;3.00;;;;;;;;;;5079983;28;20423;-71
2022/03/03 05:04:26;;;;;;;9.97;3.20;;;;;;;;;;5081198;28;20052;-71
2022/03/03 05:06:52;;;;;;;7.35;1.98;;;;;;;;;;5078795;28;20151;-71
2022/03/03 05:09:19;;;;;;;6.07;2.13;;;;;;;;;;5077364;28;20052;-71
2022/03/03 05:11:45;;;;;;;10.10;2.90;;;;;;;;;;5070081;28;20080;-72
2022/03/03 05:14:12;;;;;;;6.00;2.67;;;;;;;;;;5075976;28;20084;-71
2022/03/03 05:16:42;;;;;;;7.87;3.10;;;;;;;;;;5082528;28;21113;-71
2022/03/03 05:19:09;;;;;;;10.87;3.73;;;;;;;;;;5081691;28;20080;-71
2022/03/03 05:21:35;;;;;;;10.10;3.07;;;;;;;;;;5081369;28;20127;-71
2022/03/03 05:24:11;;;;;;;5.50;2.63;;;;;;;;;;5077153;28;20286;-71
2022/03/03 05:26:37;;;;;;;7.10;3.30;;;;;;;;;;5079328;28;20136;-71
2022/03/03 05:29:03;;;;;;;8.80;2.90;;;;;;;;;;5081764;28;20083;-71
2022/03/03 05:31:30;;;;;;;18.20;3.78;;;;;;;;;;5078686;28;20094;-71
2022/03/03 05:33:57;;;;;;;11.73;3.17;;;;;;;;;;5083447;28;20052;-72
2022/03/03 05:36:24;;;;;;;7.85;3.10;;;;;;;;;;5077799;28;20087;-71
2022/03/03 05:38:52;;;;;;;23.03;3.53;;;;;;;;;;5077238;28;20075;-71
2022/03/03 05:41:19;;;;;;;10.30;2.97;;;;;;;;;;5078725;28;20511;-72
2022/03/03 05:43:46;;;;;;;7.17;2.87;;;;;;;;;;5080467;28;20494;-71
2022/03/03 05:46:15;;;;;;;13.47;3.40;;;;;;;;;;5076348;28;20123;-71
2022/03/03 05:48:42;;;;;;;7.22;3.28;;;;;;;;;;5079742;28;20052;-71
2022/03/03 05:51:10;;;;;;;11.48;2.60;;;;;;;;;;5079807;28;20706;-71
2022/03/03 05:53:43;;;;;;;6.20;2.87;;;;;;;;;;5080065;28;20084;-71
2022/03/03 05:56:10;;;;;;;14.13;3.57;;;;;;;;;;5075692;28;20553;-71
2022/03/03 05:58:41;;;;;;;6.97;2.15;;;;;;;;;;5080532;28;20336;-71
2022/03/03 06:01:11;;;;;;;20.03;3.23;;;;;;;;;;5078370;28;20052;-71
2022/03/03 06:03:39;;;;;;;14.03;3.27;;;;;;;;;;5083132;28;20062;-71
2022/03/03 06:06:12;;;;;;;11.73;3.08;;;;;;;;;;5079492;28;20079;-71
2022/03/03 06:08:41;;;;;;;17.60;3.47;;;;;;;;;;5078728;28;20078;-72
2022/03/03 06:11:11;;;;;;;14.80;4.10;;;;;;;;;;5080633;28;20385;-71
2022/03/03 06:13:39;;;;;;;19.53;3.87;;;;;;;;;;5083818;28;20052;-71
2022/03/03 06:16:15;;;;;;;12.70;3.27;;;;;;;;;;5081077;28;20106;-71
2022/03/03 06:18:44;;;;;;;15.50;3.50;;;;;;;;;;5076666;28;20158;-71
2022/03/03 06:21:10;;;;;;;11.00;3.50;;;;;;;;;;5078922;28;20159;-72
2022/03/03 06:23:44;;;;;;;10.93;3.93;;;;;;;;;;5082033;28;20083;-70
2022/03/03 06:26:15;;;;;;;9.00;3.50;;;;;;;;;;5078363;28;20590;-71
2022/03/03 06:28:41;;;;;;;10.23;3.10;;;;;;;;;;5078173;28;20084;-71
2022/03/03 06:31:09;;;;;;;9.60;2.95;;;;;;;;;;5082990;28;20097;-71
2022/03/03 06:33:35;;;;;;;12.45;3.88;;;;;;;;;;5077352;28;20048;-71
2022/03/03 06:36:02;;;;;;;9.98;3.22;;;;;;;;;;5081739;28;20075;-71
2022/03/03 06:38:29;;;;;;;9.87;3.60;;;;;;;;;;5081314;28;20083;-71
2022/03/03 06:40:58;;;;;;;9.60;3.53;;;;;;;;;;5079905;28;20048;-71
2022/03/03 06:43:29;;;;;;;11.53;3.07;;;;;;;;;;5079833;28;20084;-71
2022/03/03 06:46:03;;;;;;;11.43;3.33;;;;;;;;;;5082716;28;20132;-71
2022/03/03 06:48:29;;;;;;;11.85;2.78;;;;;;;;;;5076743;28;20128;-71
2022/03/03 06:50:56;;;;;;;11.70;2.50;;;;;;;;;;5078280;28;20106;-71
2022/03/03 06:53:28;;;;;;;10.32;3.42;;;;;;;;;;5078212;28;20113;-71
2022/03/03 06:56:06;;;;;;;12.98;3.60;;;;;;;;;;5077726;28;20047;-71
2022/03/03 06:58:39;;;;;;;9.15;3.45;;;;;;;;;;5081534;28;20080;-71
2022/03/03 07:01:10;;;;;;;13.20;2.80;;;;;;;;;;5081775;28;20056;-71
2022/03/03 07:03:39;;;;;;;11.63;4.00;;;;;;;;;;5082686;28;20097;-71
2022/03/03 07:06:06;;;;;;;17.85;4.07;;;;;;;;;;5082146;28;20123;-71
2022/03/03 07:08:33;;;;;;;11.18;3.67;;;;;;;;;;5081823;28;20048;-72
2022/03/03 07:10:59;;;;;;;16.15;3.83;;;;;;;;;;5083578;28;20084;-73
2022/03/03 07:13:26;;;;;;;14.70;4.35;;;;;;;;;;5082537;28;20048;-72
2022/03/03 07:16:16;;;;;;;12.68;3.70;;;;;;;;;;5084991;28;20048;-72
2022/03/03 07:18:52;;;;;;;16.35;3.50;;;;;;;;;;5083010;28;20056;-72
2022/03/03 07:21:29;;;;;;;11.57;4.05;;;;;;;;;;5082533;28;20086;-72
2022/03/03 07:24:07;;;;;;;31.17;3.78;;;;;;;;;;5085926;28;20708;-73
2022/03/03 07:26:34;;;;;;;17.33;3.85;;;;;;;;;;5082802;28;20052;-72
2022/03/03 07:29:04;;;;;;;25.60;5.00;;;;;;;;;;5077529;28;20512;-72
2022/03/03 07:31:39;;;;;;;16.35;4.28;;;;;;;;;;5082642;28;20470;-72
2022/03/03 07:34:06;;;;;;;17.15;4.63;;;;;;;;;;5087039;28;20051;-72
2022/03/03 07:36:37;;;;;;;15.88;4.00;;;;;;;;;;5080105;28;20122;-72
2022/03/03 07:39:05;;;;;;;16.77;4.30;;;;;;;;;;5082419;28;20052;-72
2022/03/03 07:41:31;;;;;;;;;;;;;;;;;;5080768;28;20511;-72
2022/03/03 07:44:11;;;;;;;19.45;4.82;;;;;;;;;;5080948;28;20332;-72
2022/03/03 07:46:37;;;;;;;16.27;5.18;;;;;;;;;;5083802;28;20051;-71
2022/03/03 07:49:04;;;;;;;13.87;3.67;;;;;;;;;;5079689;28;20091;-72
2022/03/03 07:51:31;;;;;;;17.35;5.53;;;;;;;;;;5082409;28;20079;-71
2022/03/03 07:53:57;;;;;;;12.32;4.25;;;;;;;;;;5078075;28;20088;-71
2022/03/03 07:56:26;;;;;;;15.97;5.10;;;;;;;;;;5080267;28;20131;-71
2022/03/03 07:59:01;;;;;;;16.60;5.35;;;;;;;;;;5078321;28;20103;-72
2022/03/03 08:01:29;;;;;;;14.55;4.57;;;;;;;;;;5079237;28;20525;-71
2022/03/03 08:03:56;;;;;;;16.35;7.10;;;;;;;;;;5079308;28;20474;-71
2022/03/03 08:06:23;;;;;;;9.57;3.65;;;;;;;;;;5081780;28;20048;-71
2022/03/03 08:08:52;;;;;;;16.45;5.45;;;;;;;;;;5083120;28;20044;-72
2022/03/03 08:11:19;;;;;;;23.50;6.40;;;;;;;;;;5080170;28;20140;-71
2022/03/03 08:13:50;;;;;;;29.67;7.30;;;;;;;;;;5081350;28;20128;-71
2022/03/03 08:16:17;;;;;;;27.60;11.48;;;;;;;;;;5083034;28;20071;-71
2022/03/03 08:18:46;;;;;;;27.25;9.55;;;;;;;;;;5081434;28;20056;-70
2022/03/03 08:21:19;;;;;;;25.48;8.70;;;;;;;;;;5079125;28;20110;-71
2022/03/03 08:23:45;;;;;;;19.20;7.03;;;;;;;;;;5080774;28;20079;-71
2022/03/03 08:26:13;;;;;;;34.23;11.90;;;;;;;;;;5080815;28;20373;-71
2022/03/03 08:28:46;;;;;;;29.88;10.80;;;;;;;;;;5065572;28;20097;-71
2022/03/03 08:31:16;;;;;;;25.25;8.85;;;;;;;;;;5081792;28;20076;-70
2022/03/03 08:33:50;;;;;;;24.70;9.68;;;;;;;;;;5080901;28;20055;-70
2022/03/03 08:36:42;;;;;;;24.80;6.82;;;;;;;;;;5083594;28;20530;-70
2022/03/03 08:39:08;;;;;;;21.45;7.68;;;;;;;;;;5081404;28;20534;-70
2022/03/03 08:41:42;;;;;;;23.25;6.75;;;;;;;;;;5076557;28;20128;-70
2022/03/03 08:44:09;;;;;;;10.02;3.53;;;;;;;;;;5080264;28;20052;-70
2022/03/03 08:46:36;;;;;;;5.75;2.33;;;;;;;;;;5082794;28;20076;-70
2022/03/03 08:49:11;;;;;;;21.38;4.60;;;;;;;;;;5082734;28;20072;-70
2022/03/03 08:51:38;;;;;;;16.50;3.70;;;;;;;;;;5079437;28;21619;-69
2022/03/03 08:54:05;;;;;;;14.98;3.28;;;;;;;;;;5081308;28;20123;-69
2022/03/03 08:56:32;;;;;;;14.18;2.42;;;;;;;;;;5084235;28;20102;-69
2022/03/03 08:58:59;;;;;;;;;;;;;;;;;;5079426;28;20578;-70
2022/03/03 09:01:25;;;;;;;9.80;2.35;;;;;;;;;;5079933;28;19963;-70
2022/03/03 09:03:52;;;;;;;9.37;2.33;;;;;;;;;;5079991;28;20127;-69
2022/03/03 09:06:19;;;;;;;14.40;2.13;;;;;;;;;;5081811;28;20297;-69
2022/03/03 09:08:45;;;;;;;7.77;1.87;;;;;;;;;;5080673;28;20557;-69
2022/03/03 09:11:15;;;;;;;7.00;1.77;;;;;;;;;;5078535;28;20076;-69
2022/03/03 09:13:41;;;;;;;11.73;2.08;;;;;;;;;;5082650;28;20116;-69
2022/03/03 09:16:13;;;;;;;11.90;2.80;;;;;;;;;;5084742;28;20040;-69
2022/03/03 09:18:47;;;;;;;8.48;1.95;;;;;;;;;;5078288;28;20040;-68
2022/03/03 09:21:14;;;;;;;7.65;1.33;;;;;;;;;;5081062;28;20140;-69
2022/03/03 09:23:42;;;;;;;4.90;1.13;;;;;;;;;;5077894;28;20084;-69
2022/03/03 09:26:10;;;;;;;5.32;1.58;;;;;;;;;;5080864;28;20127;-68
2022/03/03 09:28:37;;;;;;;6.25;1.63;;;;;;;;;;5080943;28;20148;-68
2022/03/03 09:31:04;;;;;;;4.22;1.38;;;;;;;;;;5079668;28;20127;-69
2022/03/03 09:33:31;;;;;;;5.03;1.35;;;;;;;;;;5070193;28;20419;-69
2022/03/03 09:35:57;;;;;;;7.13;1.35;;;;;;;;;;5080766;28;20076;-69
2022/03/03 09:38:23;;;;;;;9.68;1.40;;;;;;;;;;5081075;28;20127;-69
2022/03/03 09:40:56;;;;;;;7.95;1.40;;;;;;;;;;5080671;28;20122;-69
2022/03/03 09:43:23;;;;;;;4.78;1.35;;;;;;;;;;5081919;28;20048;-69
2022/03/03 09:45:49;;;;;;;5.45;1.33;;;;;;;;;;5079422;28;20076;-70
2022/03/03 09:48:17;;;;;;;3.97;1.20;;;;;;;;;;5062879;28;20134;-70
2022/03/03 09:50:43;;;;;;;5.47;1.20;;;;;;;;;;5079168;28;20686;-69
2022/03/03 09:53:11;;;;;;;3.15;1.33;;;;;;;;;;5078667;28;20507;-69
2022/03/03 09:55:40;;;;;;;6.00;1.88;;;;;;;;;;5082805;28;20119;-69
2022/03/03 09:58:07;;;;;;;5.97;1.15;;;;;;;;;;5083809;28;20130;-69
2022/03/03 10:00:37;;;;;;;6.17;1.70;;;;;;;;;;5080781;28;20140;-69
2022/03/03 10:03:08;;;;;;;4.40;1.40;;;;;;;;;;5079976;28;20079;-70
2022/03/03 10:05:40;;;;;;;6.68;1.35;;;;;;;;;;5080354;28;20050;-69
2022/03/03 10:08:19;;;;;;;5.43;1.48;;;;;;;;;;5076125;28;20055;-70
2022/03/03 10:10:51;;;;;;;4.18;1.30;;;;;;;;;;5079318;28;20084;-70
2022/03/03 10:13:20;;;;;;;3.00;1.73;;;;;;;;;;5081471;28;20138;-70
2022/03/03 10:15:54;;;;;;;7.00;1.63;;;;;;;;;;5079218;28;20496;-70
2022/03/03 10:18:22;;;;;;;6.63;1.30;;;;;;;;;;5079345;28;20828;-70
2022/03/03 10:20:51;;;;;;;3.72;1.48;;;;;;;;;;5080576;28;20076;-70
2022/03/03 10:23:22;;;;;;;6.28;2.42;;;;;;;;;;5079324;28;20101;-70
2022/03/03 10:25:51;;;;;;;4.78;1.45;;;;;;;;;;5076779;28;20099;-70
2022/03/03 10:28:19;;;;;;;7.13;1.65;;;;;;;;;;5079125;28;20577;-69
2022/03/03 10:30:57;;;;;;;5.50;1.45;;;;;;;;;;5080018;28;20106;-70
2022/03/03 10:33:28;;;;;;;5.20;1.25;;;;;;;;;;5082267;28;20516;-69
2022/03/03 10:35:58;;;;;;;6.18;1.60;;;;;;;;;;5073206;28;20087;-69
2022/03/03 10:38:25;;;;;;;5.50;1.75;;;;;;;;;;5083579;28;20167;-70
2022/03/03 10:40:51;;;;;;;6.82;1.88;;;;;;;;;;5080694;28;20094;-70
2022/03/03 10:43:18;;;;;;;6.78;1.75;;;;;;;;;;5082458;28;20076;-70
2022/03/03 10:45:59;;;;;;;8.88;1.70;;;;;;;;;;5080618;28;20125;-70
2022/03/03 10:48:30;;;;;;;4.97;1.60;;;;;;;;;;5084489;28;20139;-70
2022/03/03 10:51:06;;;;;;;5.35;1.60;;;;;;;;;;5079189;28;20048;-70
2022/03/03 10:53:33;;;;;;;6.85;1.42;;;;;;;;;;5080564;28;20091;-70
2022/03/03 10:56:00;;;;;;;2.10;1.23;;;;;;;;;;5082535;28;20062;-70
2022/03/03 10:58:48;;;;;;;5.70;1.40;;;;;;;;;;5084208;28;20114;-70
2022/03/03 11:01:18;;;;;;;4.57;1.20;;;;;;;;;;5080773;28;20648;-70
2022/03/03 11:03:51;;;;;;;6.40;1.65;;;;;;;;;;5082754;28;20514;-69
2022/03/03 11:06:18;;;;;;;5.78;1.65;;;;;;;;;;5085727;28;20052;-69
2022/03/03 11:08:46;;;;;;;6.50;1.80;;;;;;;;;;5082772;28;20484;-69
2022/03/03 11:11:13;;;;;;;;;;;;;;;;;;5083047;28;20196;-70
2022/03/03 11:13:39;;;;;;;7.68;1.60;;;;;;;;;;5081311;28;19990;-70
2022/03/03 11:16:14;;;;;;;4.57;1.40;;;;;;;;;;5084049;28;20048;-70
2022/03/03 11:18:40;;;;;;;6.00;1.50;;;;;;;;;;5081899;28;20063;-70
2022/03/03 11:21:08;;;;;;;3.38;1.02;;;;;;;;;;5088123;28;20495;-70
2022/03/03 11:23:38;;;;;;;9.77;2.03;;;;;;;;;;5081601;28;20139;-70
2022/03/03 11:26:06;;;;;;;5.07;1.30;;;;;;;;;;5082320;28;20045;-70
2022/03/03 11:28:33;;;;;;;4.35;1.50;;;;;;;;;;5082990;28;20446;-70
2022/03/03 11:31:28;;;;;;;4.22;1.58;;;;;;;;;;5085148;28;20048;-70
2022/03/03 11:34:13;;;;;;;4.03;1.15;;;;;;;;;;5064182;28;20142;-70
2022/03/03 11:36:47;;;;;;;4.80;1.80;;;;;;;;;;5082293;28;20135;-69
2022/03/03 11:39:32;;;;;;;5.10;1.70;;;;;;;;;;5071152;28;20136;-70
2022/03/03 11:42:17;;;;;;;5.28;1.58;;;;;;;;;;5077558;28;20051;-69
2022/03/03 11:44:44;;;;;;;3.60;1.45;;;;;;;;;;5071343;28;20131;-70
2022/03/03 11:47:20;;;;;;;3.92;1.48;;;;;;;;;;5083401;28;20048;-70
2022/03/03 11:50:05;;;;;;;5.10;1.65;;;;;;;;;;5083354;28;20053;-70
2022/03/03 11:52:32;;;;;;;3.35;1.13;;;;;;;;;;5080425;28;20634;-70
2022/03/03 11:55:19;;;;;;;4.40;1.45;;;;;;;;;;5079072;28;20059;-70
2022/03/03 11:57:48;;;;;;;6.15;1.27;;;;;;;;;;5084697;28;20535;-70
2022/03/03 12:00:18;;;;;;;5.22;1.02;;;;;;;;;;5084270;28;20131;-70
2022/03/03 12:02:55;;;;;;;5.20;1.70;;;;;;;;;;5082527;28;20174;-70
2022/03/03 12:05:28;;;;;;;7.05;1.73;;;;;;;;;;5082007;28;20048;-70
2022/03/03 12:07:58;;;;;;;6.38;1.55;;;;;;;;;;5080580;28;20080;-70
2022/03/03 12:10:25;;;;;;;7.07;1.55;;;;;;;;;;5082446;28;20080;-70
2022/03/03 12:12:52;;;;;;;5.68;1.50;;;;;;;;;;5076693;28;20080;-70
2022/03/03 12:15:18;;;;;;;1.90;0.95;;;;;;;;;;5082201;28;20458;-70
2022/03/03 12:17:51;;;;;;;4.72;1.33;;;;;;;;;;5079129;28;20084;-71
2022/03/03 12:20:24;;;;;;;6.93;1.33;;;;;;;;;;5079894;28;20135;-71
2022/03/03 12:23:11;;;;;;;4.45;1.10;;;;;;;;;;5079430;28;20610;-70
2022/03/03 12:25:47;;;;;;;3.30;1.25;;;;;;;;;;5083415;28;20130;-70
2022/03/03 12:28:17;;;;;;;4.35;1.27;;;;;;;;;;5077769;28;20094;-70
2022/03/03 12:30:45;;;;;;;2.88;1.00;;;;;;;;;;5085767;28;20156;-70
2022/03/03 12:33:22;;;;;;;1.52;0.73;;;;;;;;;;5082067;28;20051;-71
2022/03/03 12:35:49;;;;;;;5.07;1.50;;;;;;;;;;5083555;28;20052;-70
2022/03/03 12:38:16;;;;;;;3.20;1.10;;;;;;;;;;5084808;28;20217;-70
2022/03/03 12:40:43;;;;;;;3.25;0.95;;;;;;;;;;5079694;28;20057;-70
2022/03/03 12:43:15;;;;;;;3.65;1.40;;;;;;;;;;5078174;28;20052;-70
2022/03/03 12:45:49;;;;;;;3.08;1.08;;;;;;;;;;5077137;28;20040;-70
2022/03/03 12:48:28;;;;;;;3.45;1.25;;;;;;;;;;5078332;28;20500;-70
2022/03/03 12:51:08;;;;;;;4.68;1.05;;;;;;;;;;5077446;28;20123;-70
2022/03/03 12:53:41;;;;;;;2.80;1.40;;;;;;;;;;5079981;28;20080;-70
2022/03/03 12:56:18;;;;;;;4.63;1.10;;;;;;;;;;5081186;28;20080;-70
2022/03/03 12:58:46;;;;;;;7.90;1.50;;;;;;;;;;5082541;28;20135;-70
2022/03/03 13:01:17;;;;;;;2.13;1.00;;;;;;;;;;5078991;28;20090;-70
2022/03/03 13:03:44;;;;;;;3.42;1.42;;;;;;;;;;5080286;28;20051;-70
2022/03/03 13:06:11;;;;;;;4.37;1.17;;;;;;;;;;5078770;28;20407;-70
2022/03/03 13:08:38;;;;;;;3.42;1.17;;;;;;;;;;5078708;28;20079;-70
2022/03/03 13:11:05;;;;;;;4.70;1.40;;;;;;;;;;5082327;28;20087;-70
2022/03/03 13:13:42;;;;;;;2.90;1.45;;;;;;;;;;5079294;28;20701;-70
2022/03/03 13:16:14;;;;;;;7.57;1.67;;;;;;;;;;5080239;28;20076;-70
2022/03/03 13:18:42;;;;;;;4.00;1.15;;;;;;;;;;5079839;28;20052;-70
2022/03/03 13:21:09;;;;;;;4.00;1.13;;;;;;;;;;5081413;28;20048;-71
2022/03/03 13:23:44;;;;;;;5.07;1.60;;;;;;;;;;5078336;28;20055;-71
2022/03/03 13:26:12;;;;;;;4.28;1.30;;;;;;;;;;5080770;28;20084;-70
2022/03/03 13:28:44;;;;;;;2.55;1.40;;;;;;;;;;5075888;28;20158;-70
2022/03/03 13:31:12;;;;;;;3.30;1.38;;;;;;;;;;5079508;28;20140;-70
2022/03/03 13:33:39;;;;;;;2.58;1.15;;;;;;;;;;5076649;28;20048;-70
2022/03/03 13:36:13;;;;;;;2.47;1.20;;;;;;;;;;5079482;28;20500;-70
2022/03/03 13:38:47;;;;;;;2.97;1.20;;;;;;;;;;5078060;28;20139;-70
2022/03/03 13:41:24;;;;;;;4.78;1.27;;;;;;;;;;5079249;28;20127;-70
2022/03/03 13:44:15;;;;;;;4.93;1.63;;;;;;;;;;5079391;28;20134;-70
2022/03/03 13:47:02;;;;;;;6.65;1.20;;;;;;;;;;5078124;28;20052;-70
2022/03/03 13:49:33;;;;;;;5.28;1.30;;;;;;;;;;5078754;28;20539;-70
2022/03/03 13:52:03;;;;;;;7.30;1.80;;;;;;;;;;5080058;28;20076;-70
2022/03/03 13:54:58;;;;;;;4.18;1.20;;;;;;;;;;5079928;28;20045;-70
2022/03/03 13:57:36;;;;;;;5.45;1.15;;;;;;;;;;5068705;28;20101;-70
2022/03/03 14:00:12;;;;;;;6.22;1.85;;;;;;;;;;5079003;28;20099;-69
2022/03/03 14:02:57;;;;;;;5.63;1.55;;;;;;;;;;5082415;28;20079;-70
2022/03/03 14:05:35;;;;;;;6.28;1.83;;;;;;;;;;5076592;28;20532;-70
2022/03/03 14:08:18;;;;;;;7.50;1.50;;;;;;;;;;5080683;28;20617;-70
2022/03/03 14:10:48;;;;;;;4.18;1.35;;;;;;;;;;5078555;28;20048;-70
2022/03/03 14:13:16;;;;;;;5.03;1.25;;;;;;;;;;5081126;28;20044;-70
2022/03/03 14:15:44;;;;;;;4.20;1.30;;;;;;;;;;5076586;28;20052;-70
2022/03/03 14:18:11;;;;;;;4.40;1.40;;;;;;;;;;5076916;28;20084;-70
2022/03/03 14:20:45;;;;;;;2.72;1.10;;;;;;;;;;5076663;28;20554;-70
2022/03/03 14:23:11;;;;;;;6.95;1.60;;;;;;;;;;5078221;28;20056;-70
2022/03/03 14:25:38;;;;;;;3.00;1.23;;;;;;;;;;5078330;28;20106;-70
2022/03/03 14:28:07;;;;;;;5.30;1.40;;;;;;;;;;5078919;28;20084;-70
2022/03/03 14:30:33;;;;;;;3.63;1.50;;;;;;;;;;5077277;28;20609;-70
2022/03/03 14:32:59;;;;;;;5.28;1.60;;;;;;;;;;5078488;28;20099;-70
2022/03/03 14:35:26;;;;;;;2.40;1.35;;;;;;;;;;5080921;28;20040;-71
2022/03/03 14:37:52;;;;;;;5.25;1.75;;;;;;;;;;5078011;28;20135;-70
2022/03/03 14:40:19;;;;;;;4.57;1.60;;;;;;;;;;5080044;28;20140;-70
2022/03/03 14:42:52;;;;;;;4.68;1.27;;;;;;;;;;5082850;28;20086;-70
2022/03/03 14:45:19;;;;;;;5.82;1.85;;;;;;;;;;5079376;28;20503;-70
2022/03/03 14:47:46;;;;;;;3.47;1.40;;;;;;;;;;5080801;28;20052;-70
2022/03/03 14:50:22;;;;;;;5.13;1.77;;;;;;;;;;5078384;28;20403;-70
2022/03/03 14:52:48;;;;;;;5.80;1.85;;;;;;;;;;5079287;28;20048;-70
2022/03/03 14:55:15;;;;;;;6.80;1.70;;;;;;;;;;5078165;28;20036;-70